createdAt,value
2023-04-18T00:00:06.342Z,9.20
2023-04-18T00:02:36.613Z,9.10
2023-04-18T00:05:05.559Z,9.10
2023-04-18T00:07:36.558Z,9.10
2023-04-18T00:10:05.346Z,9.10
2023-04-18T00:12:34.261Z,9.10
2023-04-18T00:15:02.730Z,9.00
2023-04-18T00:17:30.424Z,9.00
2023-04-18T00:20:03.190Z,9.00
2023-04-18T00:22:30.150Z,9.00
2023-04-18T00:24:57.178Z,8.90
2023-04-18T00:27:24.148Z,8.90
2023-04-18T00:29:51.340Z,8.90
2023-04-18T00:32:19.670Z,8.90
2023-04-18T00:34:47.400Z,8.90
2023-04-18T00:37:15.881Z,8.90
2023-04-18T00:39:54.476Z,8.80
2023-04-18T00:42:32.083Z,8.80
2023-04-18T00:44:59.642Z,8.70
2023-04-18T00:47:31.103Z,8.70
2023-04-18T00:49:59.425Z,8.70
2023-04-18T00:52:30.676Z,8.60
2023-04-18T00:54:57.632Z,8.60
2023-04-18T00:57:25.156Z,8.60
2023-04-18T00:59:52.880Z,8.50
2023-04-18T01:02:20.273Z,8.50
2023-04-18T01:04:50.428Z,8.50
2023-04-18T01:07:18.207Z,8.40
2023-04-18T01:09:49.048Z,8.40
2023-04-18T01:12:18.330Z,8.40
2023-04-18T01:14:45.649Z,8.30
2023-04-18T01:17:16.298Z,8.30
2023-04-18T01:19:44.430Z,8.20
2023-04-18T01:22:14.593Z,8.20
2023-04-18T01:24:43.312Z,8.20
2023-04-18T01:27:12.830Z,8.20
2023-04-18T01:29:40.249Z,8.10
2023-04-18T01:32:08.048Z,8.10
2023-04-18T01:34:35.001Z,8.00
2023-04-18T01:37:02.316Z,8.00
2023-04-18T01:39:29.401Z,7.90
2023-04-18T01:41:57.943Z,7.90
2023-04-18T01:44:25.040Z,7.90
2023-04-18T01:46:52.024Z,7.80
2023-04-18T01:49:19.322Z,7.80
2023-04-18T01:52:22.920Z,7.80
2023-04-18T01:54:54.272Z,7.70
2023-04-18T01:57:22.751Z,7.70
2023-04-18T01:59:49.768Z,7.60
2023-04-18T02:02:16.891Z,7.60
2023-04-18T02:04:46.157Z,7.50
2023-04-18T02:07:13.586Z,7.50
2023-04-18T02:09:40.779Z,7.50
2023-04-18T02:12:08.454Z,7.50
2023-04-18T02:14:36.834Z,7.40
2023-04-18T02:17:04.339Z,7.40
2023-04-18T02:19:35.299Z,7.40
2023-04-18T02:22:04.727Z,7.40
2023-04-18T02:24:31.717Z,7.30
2023-04-18T02:26:59.210Z,7.30
2023-04-18T02:29:39.170Z,7.20
2023-04-18T02:32:06.967Z,7.20
2023-04-18T02:34:36.815Z,7.20
2023-04-18T02:37:04.414Z,7.20
2023-04-18T02:39:31.563Z,7.20
2023-04-18T02:41:59.389Z,7.10
2023-04-18T02:44:26.545Z,7.10
2023-04-18T02:46:56.102Z,7.10
2023-04-18T02:49:23.640Z,7.00
2023-04-18T02:51:50.663Z,7.00
2023-04-18T02:54:18.295Z,7.00
2023-04-18T02:56:45.219Z,6.90
2023-04-18T02:59:12.585Z,6.90
2023-04-18T03:01:39.621Z,6.90
2023-04-18T03:04:08.312Z,6.90
2023-04-18T03:06:35.459Z,6.90
2023-04-18T03:11:49.200Z,6.80
2023-04-18T03:14:16.076Z,6.80
2023-04-18T03:16:43.443Z,6.80
2023-04-18T03:19:12.074Z,6.80
2023-04-18T03:21:39.516Z,6.70
2023-04-18T03:24:08.834Z,6.80
2023-04-18T03:26:37.258Z,6.70
2023-04-18T03:29:04.289Z,6.70
2023-04-18T03:31:33.564Z,6.70
2023-04-18T03:34:01.514Z,6.70
2023-04-18T03:36:31.628Z,6.60
2023-04-18T03:38:58.545Z,6.60
2023-04-18T03:41:26.370Z,6.60
2023-04-18T03:43:53.357Z,6.60
2023-04-18T03:46:22.247Z,6.60
2023-04-18T03:48:50.127Z,6.60
2023-04-18T03:51:17.082Z,6.50
2023-04-18T03:53:45.461Z,6.50
2023-04-18T03:56:12.486Z,6.50
2023-04-18T03:58:39.742Z,6.50
2023-04-18T04:01:07.899Z,6.40
2023-04-18T04:03:35.105Z,6.40
2023-04-18T04:06:06.190Z,6.40
2023-04-18T04:08:33.973Z,6.40
2023-04-18T04:11:02.318Z,6.40
2023-04-18T04:13:29.270Z,6.40
2023-04-18T04:15:57.617Z,6.40
2023-04-18T04:18:30.918Z,6.40
2023-04-18T04:20:59.228Z,6.30
2023-04-18T04:23:26.859Z,6.30
2023-04-18T04:25:54.750Z,6.30
2023-04-18T04:28:23.537Z,6.30
2023-04-18T04:30:53.846Z,6.30
2023-04-18T04:33:28.874Z,6.30
2023-04-18T04:35:59.657Z,6.20
2023-04-18T04:38:27.648Z,6.20
2023-04-18T04:40:54.640Z,6.20
2023-04-18T04:43:23.666Z,6.30
2023-04-18T04:45:54.114Z,6.30
2023-04-18T04:48:22.294Z,6.30
2023-04-18T04:50:54.165Z,6.40
2023-04-18T04:53:21.604Z,6.40
2023-04-18T04:55:49.114Z,6.40
2023-04-18T04:58:16.445Z,6.50
2023-04-18T05:00:44.787Z,6.50
2023-04-18T05:03:15.071Z,6.60
2023-04-18T05:05:45.364Z,6.60
2023-04-18T05:08:15.157Z,6.60
2023-04-18T05:10:43.298Z,6.70
2023-04-18T05:13:11.530Z,6.70
2023-04-18T05:15:40.281Z,6.70
2023-04-18T05:18:08.966Z,6.80
2023-04-18T05:20:36.679Z,6.80
2023-04-18T05:23:03.588Z,6.80
2023-04-18T05:25:33.751Z,6.80
2023-04-18T05:28:01.862Z,6.90
2023-04-18T05:30:28.973Z,6.90
2023-04-18T05:32:56.370Z,6.90
2023-04-18T05:35:25.721Z,6.90
2023-04-18T05:37:52.708Z,6.90
2023-04-18T05:40:19.974Z,6.90
2023-04-18T05:42:46.900Z,7.00
2023-04-18T05:45:20.521Z,7.00
2023-04-18T05:47:47.509Z,7.00
2023-04-18T05:50:14.860Z,7.00
2023-04-18T05:52:43.253Z,7.10
2023-04-18T05:55:10.276Z,7.10
2023-04-18T05:57:37.518Z,7.10
2023-04-18T06:00:11.464Z,7.20
2023-04-18T06:02:39.153Z,7.20
2023-04-18T06:05:08.071Z,7.20
2023-04-18T06:07:35.556Z,7.20
2023-04-18T06:10:05.716Z,7.20
2023-04-18T06:12:33.322Z,7.30
2023-04-18T06:15:00.596Z,7.30
2023-04-18T06:17:27.952Z,7.30
2023-04-18T06:19:55.218Z,7.40
2023-04-18T06:22:22.413Z,7.40
2023-04-18T06:24:49.297Z,7.50
2023-04-18T06:27:28.272Z,7.50
2023-04-18T06:29:58.557Z,7.60
2023-04-18T06:32:25.764Z,7.70
2023-04-18T06:34:53.192Z,7.70
2023-04-18T06:37:21.256Z,7.80
2023-04-18T06:39:48.192Z,7.90
2023-04-18T06:42:15.364Z,7.90
2023-04-18T06:44:43.807Z,7.90
2023-04-18T06:47:11.647Z,8.00
2023-04-18T06:49:38.578Z,8.00
2023-04-18T06:52:05.852Z,8.10
2023-04-18T06:54:33.053Z,8.10
2023-04-18T06:57:00.176Z,8.20
2023-04-18T06:59:28.335Z,8.20
2023-04-18T07:01:56.834Z,8.20
2023-04-18T07:04:24.623Z,8.30
2023-04-18T07:06:54.462Z,8.40
2023-04-18T07:09:22.911Z,8.40
2023-04-18T07:11:51.084Z,8.50
2023-04-18T07:14:19.976Z,8.60
2023-04-18T07:16:47.596Z,8.60
2023-04-18T07:19:16.084Z,8.60
2023-04-18T07:21:45.015Z,8.60
2023-04-18T07:24:13.237Z,8.60
2023-04-18T07:26:43.812Z,8.80
2023-04-18T07:29:10.710Z,8.70
2023-04-18T07:31:37.896Z,8.70
2023-04-18T07:34:04.908Z,8.70
2023-04-18T07:36:33.301Z,8.80
2023-04-18T07:39:01.039Z,8.80
2023-04-18T07:41:28.031Z,8.90
2023-04-18T07:43:55.662Z,8.90
2023-04-18T07:46:22.638Z,8.90
2023-04-18T07:48:50.232Z,8.90
2023-04-18T07:51:17.268Z,8.90
2023-04-18T07:53:45.816Z,9.00
2023-04-18T07:56:14.325Z,9.00
2023-04-18T07:58:41.366Z,9.10
2023-04-18T08:01:14.387Z,9.30
2023-04-18T08:03:42.037Z,9.50
2023-04-18T08:06:09.807Z,9.70
2023-04-18T08:08:36.702Z,10.00
2023-04-18T08:11:05.205Z,10.30
2023-04-18T08:13:33.301Z,10.50
2023-04-18T08:16:05.182Z,10.60
2023-04-18T08:18:32.927Z,10.70
2023-04-18T08:21:00.071Z,10.70
2023-04-18T08:23:29.952Z,10.90
2023-04-18T08:25:57.204Z,11.00
2023-04-18T08:28:25.798Z,11.10
2023-04-18T08:30:55.114Z,11.30
2023-04-18T08:33:25.188Z,11.50
2023-04-18T08:35:55.279Z,11.70
2023-04-18T08:38:22.887Z,11.90
2023-04-18T08:40:49.879Z,12.20
2023-04-18T08:43:17.229Z,12.40
2023-04-18T08:45:49.331Z,12.50
2023-04-18T08:48:17.691Z,12.70
2023-04-18T08:50:45.889Z,12.80
2023-04-18T08:53:13.062Z,12.90
2023-04-18T08:55:41.070Z,13.00
2023-04-18T08:58:08.042Z,13.20
2023-04-18T09:00:35.729Z,13.40
2023-04-18T09:03:04.618Z,13.40
2023-04-18T09:05:31.920Z,13.30
2023-04-18T09:08:21.369Z,13.20
2023-04-18T09:10:49.692Z,13.10
2023-04-18T09:13:39.840Z,13.00
2023-04-18T09:16:07.185Z,13.00
2023-04-18T09:18:36.331Z,12.90
2023-04-18T09:21:18.612Z,12.90
2023-04-18T09:23:50.367Z,12.80
2023-04-18T09:26:32.539Z,12.90
2023-04-18T09:28:59.699Z,13.20
2023-04-18T09:31:27.805Z,13.40
2023-04-18T09:33:57.119Z,13.50
2023-04-18T09:36:29.135Z,13.60
2023-04-18T09:38:57.272Z,13.70
2023-04-18T09:41:25.592Z,13.70
2023-04-18T09:44:09.721Z,13.70
2023-04-18T09:46:38.719Z,13.70
2023-04-18T09:49:09.679Z,13.70
2023-04-18T09:51:39.593Z,13.80
2023-04-18T09:54:06.879Z,14.10
2023-04-18T09:56:40.424Z,14.20
2023-04-18T09:59:09.766Z,14.00
2023-04-18T10:01:48.399Z,13.90
2023-04-18T10:04:17.623Z,13.90
2023-04-18T10:06:46.840Z,13.70
2023-04-18T10:09:16.135Z,13.70
2023-04-18T10:11:47.193Z,13.70
2023-04-18T10:14:16.272Z,13.80
2023-04-18T10:16:49.293Z,13.70
2023-04-18T10:19:23.735Z,13.80
2023-04-18T10:21:54.978Z,13.90
2023-04-18T10:24:48.201Z,13.90
2023-04-18T10:27:18.948Z,13.80
2023-04-18T10:29:53.023Z,13.70
2023-04-18T10:32:22.626Z,13.60
2023-04-18T10:34:55.522Z,13.50
2023-04-18T10:37:22.874Z,13.40
2023-04-18T10:39:57.220Z,13.40
2023-04-18T10:42:59.370Z,13.40
2023-04-18T10:45:28.777Z,13.40
2023-04-18T10:48:27.677Z,13.30
2023-04-18T10:51:19.159Z,13.20
2023-04-18T10:53:55.172Z,13.10
2023-04-18T10:56:25.308Z,13.20
2023-04-18T10:58:56.069Z,13.40
2023-04-18T11:01:31.758Z,13.40
2023-04-18T11:04:00.970Z,13.40
2023-04-18T11:06:31.856Z,13.40
2023-04-18T11:09:12.215Z,13.50
2023-04-18T11:11:39.312Z,13.40
2023-04-18T11:14:10.931Z,13.40
2023-04-18T11:16:38.747Z,13.10
2023-04-18T11:19:20.153Z,13.00
2023-04-18T11:21:51.505Z,13.00
2023-04-18T11:24:25.230Z,13.20
2023-04-18T11:26:57.047Z,13.60
2023-04-18T11:29:24.719Z,14.00
2023-04-18T11:31:58.360Z,14.30
2023-04-18T11:34:29.830Z,14.30
2023-04-18T11:36:59.826Z,14.40
2023-04-18T11:39:27.177Z,14.30
2023-04-18T11:41:56.390Z,14.00
2023-04-18T11:44:25.281Z,13.90
2023-04-18T11:46:52.368Z,13.70
2023-04-18T11:49:27.066Z,13.70
2023-04-18T11:51:54.616Z,13.60
2023-04-18T11:57:38.839Z,13.60
2023-04-18T12:00:08.736Z,13.60
2023-04-18T12:02:42.190Z,13.70
2023-04-18T12:05:10.542Z,13.70
2023-04-18T12:07:39.975Z,13.70
2023-04-18T12:10:29.544Z,13.70
2023-04-18T12:13:00.168Z,13.70
2023-04-18T12:15:31.893Z,13.60
2023-04-18T12:18:00.652Z,13.60
2023-04-18T12:20:35.006Z,13.60
2023-04-18T12:23:03.537Z,13.70
2023-04-18T12:25:32.185Z,13.70
2023-04-18T12:28:05.862Z,13.70
2023-04-18T12:30:37.337Z,13.80
2023-04-18T12:33:05.215Z,13.80
2023-04-18T12:35:32.929Z,13.80
2023-04-18T12:38:01.103Z,13.60
2023-04-18T12:40:31.108Z,13.60
2023-04-18T12:43:02.204Z,13.60
2023-04-18T12:45:31.065Z,13.60
2023-04-18T12:47:58.734Z,13.70
2023-04-18T12:50:29.053Z,13.70
2023-04-18T12:53:00.646Z,13.60
2023-04-18T12:55:29.264Z,13.60
2023-04-18T12:57:59.004Z,13.50
2023-04-18T13:00:29.487Z,13.50
2023-04-18T13:02:56.926Z,13.50
2023-04-18T13:05:25.630Z,13.50
2023-04-18T13:08:08.529Z,13.60
2023-04-18T13:10:40.379Z,13.60
2023-04-18T13:13:07.441Z,13.70
2023-04-18T13:15:36.830Z,13.70
2023-04-18T13:18:06.205Z,13.80
2023-04-18T13:20:37.595Z,13.90
2023-04-18T13:23:05.320Z,13.90
2023-04-18T13:25:32.516Z,13.90
2023-04-18T13:28:01.025Z,13.90
2023-04-18T13:30:28.260Z,13.90
2023-04-18T13:32:57.036Z,14.00
2023-04-18T13:35:26.805Z,14.20
2023-04-18T13:37:53.865Z,14.40
2023-04-18T13:40:20.992Z,14.40
2023-04-18T13:42:48.251Z,14.40
2023-04-18T13:45:15.586Z,14.40
2023-04-18T13:47:43.668Z,14.40
2023-04-18T13:50:14.827Z,14.30
2023-04-18T13:52:41.802Z,14.30
2023-04-18T13:55:10.748Z,14.30
2023-04-18T13:57:38.570Z,14.30
2023-04-18T14:00:07.076Z,14.30
2023-04-18T14:02:34.158Z,14.30
2023-04-18T14:05:02.386Z,14.30
2023-04-18T14:07:31.369Z,14.30
2023-04-18T14:09:58.347Z,14.20
2023-04-18T14:12:25.733Z,14.20
2023-04-18T14:14:52.717Z,14.10
2023-04-18T14:17:19.857Z,14.10
2023-04-18T14:19:46.726Z,14.10
2023-04-18T14:22:14.061Z,14.20
2023-04-18T14:24:42.464Z,14.20
2023-04-18T14:27:12.157Z,14.20
2023-04-18T14:29:39.527Z,14.20
2023-04-18T14:32:07.191Z,14.10
2023-04-18T14:34:36.657Z,14.10
2023-04-18T14:37:04.547Z,14.10
2023-04-18T14:39:31.458Z,14.10
2023-04-18T14:42:01.449Z,14.10
2023-04-18T14:44:29.825Z,14.20
2023-04-18T14:46:57.736Z,14.30
2023-04-18T14:49:24.804Z,14.30
2023-04-18T14:51:52.237Z,14.40
2023-04-18T14:54:19.100Z,14.50
2023-04-18T14:56:49.368Z,14.60
2023-04-18T14:59:17.848Z,14.70
2023-04-18T15:01:45.099Z,14.80
2023-04-18T15:04:13.207Z,15.10
2023-04-18T15:06:41.890Z,15.40
2023-04-18T15:09:08.869Z,15.80
2023-04-18T15:11:38.895Z,15.90
2023-04-18T15:14:07.260Z,15.90
2023-04-18T15:16:40.928Z,15.70
2023-04-18T15:19:08.163Z,15.60
2023-04-18T15:21:35.142Z,15.40
2023-04-18T15:24:02.249Z,15.30
2023-04-18T15:26:33.109Z,15.20
2023-04-18T15:29:04.762Z,15.20
2023-04-18T15:31:32.573Z,15.30
2023-04-18T15:34:01.272Z,15.40
2023-04-18T15:36:28.806Z,15.70
2023-04-18T15:38:56.184Z,15.80
2023-04-18T15:41:24.433Z,15.80
2023-04-18T15:43:52.735Z,15.80
2023-04-18T15:46:20.212Z,15.70
2023-04-18T15:48:47.265Z,15.60
2023-04-18T15:51:15.609Z,15.60
2023-04-18T15:53:42.789Z,15.70
2023-04-18T15:56:10.037Z,15.90
2023-04-18T15:58:37.767Z,16.00
2023-04-18T16:01:05.758Z,16.10
2023-04-18T16:03:32.891Z,16.10
2023-04-18T16:05:59.853Z,16.10
2023-04-18T16:08:29.886Z,15.90
2023-04-18T16:10:58.332Z,15.70
2023-04-18T16:13:25.599Z,15.60
2023-04-18T16:16:02.693Z,15.50
2023-04-18T16:18:29.712Z,15.50
2023-04-18T16:20:57.571Z,15.40
2023-04-18T16:23:26.603Z,15.30
2023-04-18T16:25:55.453Z,15.30
2023-04-18T16:28:22.511Z,15.30
2023-04-18T16:30:50.377Z,15.40
2023-04-18T16:33:21.576Z,15.50
2023-04-18T16:35:48.777Z,15.60
2023-04-18T16:38:18.639Z,15.70
2023-04-18T16:40:48.917Z,15.80
2023-04-18T16:43:17.246Z,15.80
2023-04-18T16:45:45.830Z,15.60
2023-04-18T16:48:12.833Z,15.50
2023-04-18T16:50:45.875Z,15.60
2023-04-18T16:53:12.926Z,15.50
2023-04-18T16:55:41.878Z,15.50
2023-04-18T16:58:09.672Z,15.50
2023-04-18T17:00:38.668Z,15.50
2023-04-18T17:03:10.190Z,15.50
2023-04-18T17:05:37.704Z,15.50
2023-04-18T17:08:05.500Z,15.50
2023-04-18T17:10:32.732Z,15.40
2023-04-18T17:13:02.671Z,15.40
2023-04-18T17:15:32.950Z,15.40
2023-04-18T17:18:02.439Z,15.30
2023-04-18T17:20:32.475Z,15.30
2023-04-18T17:23:00.145Z,15.20
2023-04-18T17:25:27.136Z,15.10
2023-04-18T17:27:57.382Z,15.10
2023-04-18T17:30:25.441Z,15.10
2023-04-18T17:32:53.059Z,15.00
2023-04-18T17:35:21.926Z,15.00
2023-04-18T17:37:50.267Z,15.00
2023-04-18T17:40:17.731Z,15.00
2023-04-18T17:42:44.857Z,14.90
2023-04-18T17:45:12.295Z,14.90
2023-04-18T17:47:40.787Z,14.80
2023-04-18T17:50:09.199Z,14.70
2023-04-18T17:52:39.827Z,14.70
2023-04-18T17:55:08.220Z,14.70
2023-04-18T17:57:35.527Z,14.60
2023-04-18T18:00:06.272Z,14.60
2023-04-18T18:02:33.786Z,14.60
2023-04-18T18:05:01.062Z,14.60
2023-04-18T18:07:28.157Z,14.50
2023-04-18T18:10:01.471Z,14.50
2023-04-18T18:12:28.797Z,14.40
2023-04-18T18:14:58.634Z,14.40
2023-04-18T18:17:25.820Z,14.30
2023-04-18T18:19:52.822Z,14.30
2023-04-18T18:22:21.351Z,14.20
2023-04-18T18:24:48.421Z,14.10
2023-04-18T18:27:21.916Z,14.00
2023-04-18T18:29:50.373Z,14.00
2023-04-18T18:32:17.469Z,13.90
2023-04-18T18:34:44.428Z,13.90
2023-04-18T18:37:11.578Z,13.90
2023-04-18T18:39:40.677Z,13.80
2023-04-18T18:42:08.661Z,13.70
2023-04-18T18:44:37.230Z,13.70
2023-04-18T18:47:05.625Z,13.60
2023-04-18T18:49:33.371Z,13.60
2023-04-18T18:52:01.681Z,13.50
2023-04-18T18:54:31.996Z,13.40
2023-04-18T18:57:02.076Z,13.40
2023-04-18T18:59:29.772Z,13.40
2023-04-18T19:02:00.939Z,13.30
2023-04-18T19:04:29.151Z,13.20
2023-04-18T19:06:56.321Z,13.20
2023-04-18T19:09:24.180Z,13.10
2023-04-18T19:11:51.388Z,13.00
2023-04-18T19:14:19.034Z,13.00
2023-04-18T19:16:46.480Z,12.90
2023-04-18T19:19:15.632Z,12.90
2023-04-18T19:21:45.817Z,12.80
2023-04-18T19:24:13.009Z,12.70
2023-04-18T19:26:41.135Z,12.60
2023-04-18T19:29:09.720Z,12.60
2023-04-18T19:31:37.282Z,12.60
2023-04-18T19:34:04.300Z,12.50
2023-04-18T19:36:32.650Z,12.50
2023-04-18T19:39:00.183Z,12.50
2023-04-18T19:41:27.200Z,12.40
2023-04-18T19:43:54.994Z,12.40
2023-04-18T19:46:22.223Z,12.40
2023-04-18T19:48:49.876Z,12.30
2023-04-18T19:51:17.052Z,12.30
2023-04-18T19:53:46.218Z,12.20
2023-04-18T19:56:14.942Z,12.20
2023-04-18T19:58:46.998Z,12.20
2023-04-18T20:01:15.180Z,12.20
2023-04-18T20:03:43.066Z,12.10
2023-04-18T20:06:10.486Z,12.00
2023-04-18T20:08:41.460Z,12.00
2023-04-18T20:11:16.778Z,12.00
2023-04-18T20:13:44.514Z,12.00
2023-04-18T20:16:12.262Z,11.90
2023-04-18T20:18:40.901Z,11.90
2023-04-18T20:21:09.164Z,11.90
2023-04-18T20:23:36.714Z,11.90
2023-04-18T20:26:04.311Z,11.90
2023-04-18T20:28:33.004Z,11.80
2023-04-18T20:30:59.979Z,11.70
2023-04-18T20:33:29.901Z,11.70
2023-04-18T20:35:59.923Z,11.70
2023-04-18T20:38:30.593Z,11.60
2023-04-18T20:40:58.925Z,11.50
2023-04-18T20:43:26.978Z,11.50
2023-04-18T20:45:58.001Z,11.50
2023-04-18T20:48:25.109Z,11.50
2023-04-18T20:50:52.842Z,11.40
2023-04-18T20:53:21.187Z,11.40
2023-04-18T20:55:48.510Z,11.30
2023-04-18T20:58:16.726Z,11.40
2023-04-18T21:00:48.895Z,11.30
2023-04-18T21:03:17.709Z,11.30
2023-04-18T21:05:45.854Z,11.20
2023-04-18T21:08:12.860Z,11.20
2023-04-18T21:10:40.005Z,11.20
2023-04-18T21:13:07.235Z,11.10
2023-04-18T21:15:36.940Z,11.10
2023-04-18T21:18:04.501Z,11.10
2023-04-18T21:20:34.584Z,11.00
2023-04-18T21:23:01.524Z,11.00
2023-04-18T21:25:28.785Z,10.90
2023-04-18T21:27:55.717Z,10.90
2023-04-18T21:30:22.970Z,10.90
2023-04-18T21:32:51.497Z,10.90
2023-04-18T21:35:23.487Z,10.90
2023-04-18T21:37:53.414Z,10.90
2023-04-18T21:40:20.617Z,10.90
2023-04-18T21:42:49.770Z,10.80
2023-04-18T21:45:18.162Z,10.80
2023-04-18T21:47:45.410Z,10.80
2023-04-18T21:50:13.202Z,10.80
2023-04-18T21:52:40.303Z,10.70
2023-04-18T21:55:09.757Z,10.70
2023-04-18T21:57:37.320Z,10.60
2023-04-18T22:00:08.573Z,10.60
2023-04-18T22:02:40.227Z,10.60
2023-04-18T22:05:08.909Z,10.50
2023-04-18T22:07:43.266Z,10.50
2023-04-18T22:10:18.976Z,10.50
2023-04-18T22:12:46.236Z,10.50
2023-04-18T22:15:13.276Z,10.40
2023-04-18T22:17:41.701Z,10.40
2023-04-18T22:20:11.227Z,10.40
2023-04-18T22:22:41.890Z,10.40
2023-04-18T22:25:11.604Z,10.40
2023-04-18T22:27:40.757Z,10.40
2023-04-18T22:30:11.547Z,10.30
2023-04-18T22:32:39.411Z,10.30
2023-04-18T22:35:08.862Z,10.30
2023-04-18T22:37:35.867Z,10.20
2023-04-18T22:40:06.337Z,10.20
2023-04-18T22:42:33.965Z,10.20
2023-04-18T22:45:06.065Z,10.20
2023-04-18T22:47:33.834Z,10.20
2023-04-18T22:50:01.076Z,10.10
2023-04-18T22:52:31.022Z,10.10
2023-04-18T22:55:01.201Z,10.10
2023-04-18T22:57:28.940Z,10.00
2023-04-18T22:59:56.405Z,10.00
2023-04-18T23:02:25.118Z,10.00
2023-04-18T23:04:53.431Z,10.00
2023-04-18T23:07:20.477Z,9.90
2023-04-18T23:09:47.777Z,9.90
2023-04-18T23:12:17.444Z,9.90
2023-04-18T23:14:44.368Z,9.90
2023-04-18T23:17:14.396Z,9.90
2023-04-18T23:19:45.057Z,9.90
2023-04-18T23:22:12.485Z,9.80
2023-04-18T23:24:39.417Z,9.80
2023-04-18T23:27:06.656Z,9.80
2023-04-18T23:29:37.823Z,9.80
2023-04-18T23:32:09.112Z,9.70
2023-04-18T23:34:39.212Z,9.70
2023-04-18T23:37:07.830Z,9.70
2023-04-18T23:39:35.675Z,9.60
2023-04-18T23:42:02.759Z,9.60
2023-04-18T23:44:29.749Z,9.60
2023-04-18T23:46:57.510Z,9.60
2023-04-18T23:49:28.428Z,9.60
2023-04-18T23:51:55.890Z,9.60
2023-04-18T23:54:24.408Z,9.60
2023-04-18T23:56:51.400Z,9.60
2023-04-18T23:59:22.050Z,9.60
